Time;durP1;ratioP1;P1;durP2;ratioP2;P2;SDS_P1;SDS_P2;PMS_P1;PMS_P2;Temp;Humidity;BMP_temperature;BMP_pressure;BME280_temperature;BME280_humidity;BME280_pressure;Samples;Min_cycle;Max_cycle;Signal;HPM_P1;HPM_P2
2023/12/05 00:01:33;;;;;;;22.73;14.15;;;0.30;99.90;;;;;;4994512;28;20430;-57
2023/12/05 00:03:59;;;;;;;22.20;14.85;;;0.40;99.90;;;;;;4998730;28;20541;-57
2023/12/05 00:06:25;;;;;;;25.92;15.30;;;0.30;99.90;;;;;;4999112;28;20376;-58
2023/12/05 00:08:51;;;;;;;23.10;14.60;;;0.30;99.90;;;;;;4995042;28;20045;-54
2023/12/05 00:11:16;;;;;;;27.45;15.77;;;0.30;99.90;;;;;;4993235;28;20065;-55
2023/12/05 00:13:42;;;;;;;23.88;15.77;;;0.30;99.90;;;;;;4996649;28;20116;-57
2023/12/05 00:16:09;;;;;;;25.20;15.38;;;0.30;99.90;;;;;;4984298;28;20057;-54
2023/12/05 00:18:36;;;;;;;24.48;15.70;;;0.30;99.90;;;;;;4990651;28;20125;-58
2023/12/05 00:21:02;;;;;;;22.10;15.05;;;0.30;99.90;;;;;;4992713;28;20078;-58
2023/12/05 00:23:28;;;;;;;23.70;14.93;;;0.30;99.90;;;;;;4972831;28;20137;-59
2023/12/05 00:25:53;;;;;;;28.10;14.95;;;0.30;99.90;;;;;;4993290;28;20481;-56
2023/12/05 00:28:19;;;;;;;24.65;15.27;;;0.20;99.90;;;;;;4991220;28;20076;-56
2023/12/05 00:30:45;;;;;;;22.58;14.27;;;0.30;99.90;;;;;;4971792;28;20064;-52
2023/12/05 00:33:11;;;;;;;22.40;13.98;;;0.30;99.90;;;;;;4992794;28;20038;-57
2023/12/05 00:35:37;;;;;;;22.58;14.60;;;0.30;99.90;;;;;;4974248;28;20046;-57
2023/12/05 00:38:02;;;;;;;22.83;14.75;;;0.20;99.90;;;;;;4994796;28;20049;-59
2023/12/05 00:40:29;;;;;;;24.08;14.55;;;0.20;99.90;;;;;;4999188;28;20065;-59
2023/12/05 00:42:58;;;;;;;22.55;14.40;;;0.20;99.90;;;;;;5005017;28;20447;-58
2023/12/05 00:45:24;;;;;;;23.48;15.40;;;0.20;99.90;;;;;;4997243;28;20037;-58
2023/12/05 00:47:51;;;;;;;23.08;15.00;;;0.10;99.90;;;;;;5001402;28;20053;-56
2023/12/05 00:50:17;;;;;;;25.08;15.77;;;0.10;99.90;;;;;;4980962;28;20125;-57
2023/12/05 00:52:42;;;;;;;27.27;15.98;;;0.10;99.90;;;;;;5000454;28;20037;-58
2023/12/05 00:55:08;;;;;;;25.27;14.88;;;0.10;99.90;;;;;;4998469;28;20454;-58
2023/12/05 00:57:34;;;;;;;27.00;15.88;;;0.10;99.90;;;;;;4997326;28;20046;-56
2023/12/05 01:00:00;;;;;;;27.42;16.10;;;0.10;99.90;;;;;;4994891;28;20127;-58
2023/12/05 01:02:26;;;;;;;28.50;16.25;;;0.10;99.90;;;;;;4979642;28;20435;-57
2023/12/05 01:04:51;;;;;;;26.77;16.33;;;0.10;99.90;;;;;;4996408;28;20176;-58
2023/12/05 01:07:18;;;;;;;27.13;15.68;;;0.10;99.90;;;;;;4982301;28;20131;-56
2023/12/05 01:09:44;;;;;;;26.85;16.35;;;0.10;99.90;;;;;;4992924;28;20052;-54
2023/12/05 01:12:11;;;;;;;26.95;16.67;;;0.10;99.90;;;;;;4992365;28;20043;-59
2023/12/05 01:14:37;;;;;;;29.52;17.17;;;0.10;99.90;;;;;;4993313;28;20038;-58
2023/12/05 01:17:03;;;;;;;28.58;17.70;;;0.10;99.90;;;;;;4992698;28;20049;-56
2023/12/05 01:19:30;;;;;;;25.63;16.88;;;0.10;99.90;;;;;;4991463;28;20510;-54
2023/12/05 01:21:56;;;;;;;29.55;17.38;;;0.10;99.90;;;;;;4988463;28;20450;-56
2023/12/05 01:24:22;;;;;;;27.67;17.30;;;0.10;99.90;;;;;;4991079;28;20057;-58
2023/12/05 01:26:47;;;;;;;29.15;17.88;;;0.10;99.90;;;;;;4991458;28;20493;-57
2023/12/05 01:29:13;;;;;;;28.13;17.60;;;0.10;99.90;;;;;;4989518;28;20078;-59
2023/12/05 01:31:39;;;;;;;27.75;17.08;;;0.10;99.90;;;;;;4988165;28;20046;-54
2023/12/05 01:34:04;;;;;;;28.90;17.35;;;0.10;99.90;;;;;;5000213;28;20073;-59
2023/12/05 01:36:30;;;;;;;27.73;17.75;;;0.10;99.90;;;;;;5000507;28;20107;-56
2023/12/05 01:38:56;;;;;;;29.02;17.55;;;0.10;99.90;;;;;;4999359;28;20119;-58
2023/12/05 01:41:22;;;;;;;29.42;17.90;;;0.10;99.90;;;;;;5001985;28;20042;-53
2023/12/05 01:43:49;;;;;;;29.60;18.15;;;0.10;99.90;;;;;;4996881;28;20128;-54
2023/12/05 01:46:15;;;;;;;26.92;17.30;;;0.10;99.90;;;;;;4999768;28;20050;-59
2023/12/05 01:48:41;;;;;;;25.55;16.60;;;0.10;99.90;;;;;;4997930;28;20104;-58
2023/12/05 01:51:09;;;;;;;28.15;16.52;;;0.10;99.90;;;;;;5000721;28;20042;-58
2023/12/05 01:53:40;;;;;;;28.38;17.30;;;0.10;99.90;;;;;;5002075;28;20046;-53
2023/12/05 01:56:09;;;;;;;27.90;17.00;;;0.10;99.90;;;;;;4997611;28;20077;-56
2023/12/05 01:58:36;;;;;;;29.58;17.20;;;0.10;99.90;;;;;;4998366;28;20054;-59
2023/12/05 02:01:03;;;;;;;28.75;18.15;;;0.10;99.90;;;;;;4991265;28;20033;-58
2023/12/05 02:03:30;;;;;;;30.70;17.98;;;0.10;99.90;;;;;;4994031;28;20091;-55
2023/12/05 02:05:58;;;;;;;25.40;16.88;;;0.10;99.90;;;;;;4998646;28;20300;-58
2023/12/05 02:08:26;;;;;;;28.35;17.25;;;0.10;99.90;;;;;;4995197;28;20053;-58
2023/12/05 02:10:52;;;;;;;27.48;17.40;;;0.10;99.90;;;;;;4976723;28;20046;-57
2023/12/05 02:13:18;;;;;;;25.83;16.60;;;0.10;99.90;;;;;;4990117;28;20103;-56
2023/12/05 02:15:46;;;;;;;27.88;17.17;;;0.10;99.90;;;;;;4988950;28;20053;-57
2023/12/05 02:18:18;;;;;;;27.45;16.92;;;0.10;99.90;;;;;;4989913;28;20096;-58
2023/12/05 02:20:52;;;;;;;26.85;16.67;;;0.10;99.90;;;;;;4989838;28;20383;-54
2023/12/05 02:23:53;;;;;;;27.23;17.00;;;0.10;99.90;;;;;;4990292;28;20461;-52
2023/12/05 02:26:32;;;;;;;28.27;17.33;;;0.10;99.90;;;;;;4991732;28;20466;-57
2023/12/05 02:28:58;;;;;;;26.15;17.38;;;0.10;99.90;;;;;;4989705;28;20402;-58
2023/12/05 02:31:24;;;;;;;26.42;17.52;;;0.10;99.90;;;;;;4996010;28;20054;-57
2023/12/05 02:33:50;;;;;;;27.55;17.40;;;0.10;99.90;;;;;;5001537;28;20533;-59
2023/12/05 02:36:19;;;;;;;31.27;17.52;;;0.10;99.90;;;;;;4996765;28;20522;-58
2023/12/05 02:38:59;;;;;;;26.92;16.63;;;0.20;99.90;;;;;;4991666;28;20077;-55
2023/12/05 02:41:30;;;;;;;29.33;17.75;;;0.00;99.90;;;;;;4998277;28;20081;-57
2023/12/05 02:44:17;;;;;;;29.25;17.83;;;0.00;99.90;;;;;;4997675;28;20045;-53
2023/12/05 02:46:44;;;;;;;29.23;18.02;;;0.10;99.90;;;;;;4991260;28;20046;-59
2023/12/05 02:49:11;;;;;;;26.52;16.92;;;0.10;99.90;;;;;;4993822;28;20042;-58
2023/12/05 02:51:37;;;;;;;27.05;17.77;;;0.10;99.90;;;;;;4993183;28;20506;-57
2023/12/05 02:54:06;;;;;;;27.80;17.88;;;0.10;99.90;;;;;;4991621;28;20096;-53
2023/12/05 02:56:37;;;;;;;27.65;17.55;;;0.10;99.90;;;;;;4989133;28;20045;-57
2023/12/05 02:59:04;;;;;;;29.92;18.75;;;0.10;99.90;;;;;;4980189;28;20042;-57
2023/12/05 03:01:29;;;;;;;30.95;18.75;;;0.00;99.90;;;;;;4988363;28;20081;-58
2023/12/05 03:03:55;;;;;;;28.48;18.52;;;0.00;99.90;;;;;;4986665;28;20175;-58
2023/12/05 03:06:21;;;;;;;27.40;18.13;;;0.00;99.90;;;;;;4993865;28;20038;-55
2023/12/05 03:08:46;;;;;;;29.77;18.85;;;0.00;99.90;;;;;;4983355;28;20034;-52
2023/12/05 03:11:12;;;;;;;28.52;18.80;;;0.00;99.90;;;;;;4975184;28;20614;-55
2023/12/05 03:13:39;;;;;;;30.20;19.00;;;0.10;99.90;;;;;;4977388;28;20653;-57
2023/12/05 03:16:07;;;;;;;29.08;18.55;;;0.10;99.90;;;;;;4987866;28;20665;-59
2023/12/05 03:18:32;;;;;;;29.55;18.83;;;0.10;99.90;;;;;;4990505;28;20089;-59
2023/12/05 03:20:58;;;;;;;30.10;19.38;;;0.00;99.90;;;;;;4997133;28;20134;-56
2023/12/05 03:23:24;;;;;;;29.20;18.50;;;0.00;99.90;;;;;;4990927;28;20046;-59
2023/12/05 03:25:49;;;;;;;30.88;19.83;;;0.00;99.90;;;;;;4992462;28;20532;-58
2023/12/05 03:28:15;;;;;;;33.72;19.70;;;0.00;99.90;;;;;;4993187;28;20449;-58
2023/12/05 03:30:41;;;;;;;33.22;19.67;;;0.10;99.90;;;;;;4992459;28;20038;-58
2023/12/05 03:33:06;;;;;;;33.30;20.15;;;0.00;99.90;;;;;;4988846;28;20055;-54
2023/12/05 03:35:32;;;;;;;35.38;21.05;;;0.10;99.90;;;;;;4992067;28;20410;-59
2023/12/05 03:37:58;;;;;;;31.98;20.35;;;0.00;99.90;;;;;;4980478;28;20041;-58
2023/12/05 03:40:23;;;;;;;32.25;20.73;;;0.00;99.90;;;;;;4991826;28;20042;-55
2023/12/05 03:42:49;;;;;;;33.65;19.40;;;0.00;99.90;;;;;;4993544;28;20056;-55
2023/12/05 03:45:15;;;;;;;30.20;19.67;;;0.00;99.90;;;;;;4999281;28;20045;-57
2023/12/05 03:47:41;;;;;;;32.83;20.50;;;0.00;99.90;;;;;;5001297;28;20492;-58
2023/12/05 03:50:07;;;;;;;34.10;20.33;;;0.00;99.90;;;;;;4990381;28;20131;-57
2023/12/05 03:52:32;;;;;;;34.33;20.45;;;0.00;99.90;;;;;;4992414;28;20143;-57
2023/12/05 03:54:58;;;;;;;32.35;19.80;;;0.00;99.90;;;;;;4992624;28;20434;-57
2023/12/05 03:57:24;;;;;;;33.80;21.13;;;0.00;99.90;;;;;;4995446;28;20076;-57
2023/12/05 03:59:49;;;;;;;35.38;21.88;;;0.00;99.90;;;;;;4995355;28;20084;-56
2023/12/05 04:02:15;;;;;;;33.80;21.50;;;0.00;99.90;;;;;;4985901;28;20035;-58
2023/12/05 04:04:41;;;;;;;32.53;20.52;;;0.00;99.90;;;;;;4991553;28;20054;-52
2023/12/05 04:07:06;;;;;;;37.60;21.85;;;0.00;99.90;;;;;;4983774;28;20089;-55
2023/12/05 04:09:32;;;;;;;36.97;20.88;;;0.00;99.90;;;;;;4999225;28;20120;-58
2023/12/05 04:11:58;;;;;;;33.85;20.70;;;0.00;99.90;;;;;;4999680;28;20434;-53
2023/12/05 04:14:24;;;;;;;35.70;20.90;;;0.00;99.90;;;;;;4994632;28;20042;-53
2023/12/05 04:16:50;;;;;;;36.10;21.58;;;0.00;99.90;;;;;;4976207;28;20038;-57
2023/12/05 04:19:16;;;;;;;38.13;22.08;;;0.00;99.90;;;;;;4994151;28;20192;-50
2023/12/05 04:21:42;;;;;;;36.92;21.23;;;0.00;99.90;;;;;;4980253;28;20046;-59
2023/12/05 04:24:07;;;;;;;34.65;21.23;;;0.00;99.90;;;;;;4997339;28;20072;-59
2023/12/05 04:26:33;;;;;;;36.53;21.45;;;0.00;99.90;;;;;;4996537;28;20057;-57
2023/12/05 04:28:59;;;;;;;33.60;21.25;;;0.00;99.90;;;;;;4994656;28;20128;-57
2023/12/05 04:31:28;;;;;;;36.35;21.63;;;0.00;99.90;;;;;;4983092;28;20050;-56
2023/12/05 04:33:54;;;;;;;34.33;21.08;;;0.00;99.90;;;;;;4999025;28;20038;-57
2023/12/05 04:36:20;;;;;;;35.15;21.25;;;0.00;99.90;;;;;;5000927;28;20742;-58
2023/12/05 04:38:45;;;;;;;38.97;22.48;;;0.00;99.90;;;;;;5000475;28;20038;-57
2023/12/05 04:41:11;;;;;;;34.90;20.85;;;0.00;99.90;;;;;;4995300;28;20375;-57
2023/12/05 04:43:37;;;;;;;38.78;21.55;;;-0.10;99.90;;;;;;4994481;28;20601;-58
2023/12/05 04:46:02;;;;;;;33.33;21.85;;;-0.10;99.90;;;;;;4992195;28;20107;-56
2023/12/05 04:48:28;;;;;;;33.83;20.95;;;-0.10;99.90;;;;;;4996591;28;20125;-53
2023/12/05 04:50:54;;;;;;;36.20;21.48;;;-0.10;99.90;;;;;;4994631;28;20074;-58
2023/12/05 04:53:19;;;;;;;37.63;20.67;;;0.00;99.90;;;;;;4993996;28;20060;-55
2023/12/05 04:55:45;;;;;;;36.05;21.35;;;0.00;99.90;;;;;;4993382;28;20073;-52
2023/12/05 04:58:11;;;;;;;38.38;21.60;;;-0.10;99.90;;;;;;4993522;28;20101;-57
2023/12/05 05:00:37;;;;;;;36.97;21.08;;;-0.10;99.90;;;;;;4991010;28;20046;-57
2023/12/05 05:03:03;;;;;;;37.63;22.00;;;-0.10;99.90;;;;;;4991351;28;20042;-57
2023/12/05 05:05:29;;;;;;;35.97;21.40;;;-0.10;99.90;;;;;;4998642;28;20038;-56
2023/12/05 05:07:55;;;;;;;35.85;21.35;;;-0.10;99.90;;;;;;5001741;28;20505;-57
2023/12/05 05:10:20;;;;;;;35.55;22.02;;;-0.10;99.90;;;;;;5002654;28;20150;-58
2023/12/05 05:12:46;;;;;;;37.83;22.30;;;-0.10;99.90;;;;;;5003530;28;20052;-53
2023/12/05 05:15:12;;;;;;;37.80;21.45;;;-0.10;99.90;;;;;;5001258;28;20121;-53
2023/12/05 05:17:37;;;;;;;35.20;20.42;;;-0.10;99.90;;;;;;5002326;28;20533;-58
2023/12/05 05:20:04;;;;;;;36.67;21.88;;;-0.10;99.90;;;;;;4999411;28;20045;-57
2023/12/05 05:22:30;;;;;;;35.55;20.60;;;-0.10;99.90;;;;;;4998175;28;20034;-57
2023/12/05 05:24:56;;;;;;;34.67;20.80;;;-0.10;99.90;;;;;;4998894;28;20925;-53
2023/12/05 05:27:21;;;;;;;36.10;21.38;;;0.00;99.90;;;;;;5000621;28;20474;-55
2023/12/05 05:29:47;;;;;;;33.60;20.20;;;-0.10;99.90;;;;;;4981767;28;20073;-56
2023/12/05 05:32:13;;;;;;;36.30;20.30;;;-0.10;99.90;;;;;;4995710;28;20050;-56
2023/12/05 05:34:38;;;;;;;33.97;19.83;;;-0.10;99.90;;;;;;4997771;28;20042;-57
2023/12/05 05:37:04;;;;;;;33.15;19.83;;;-0.10;99.90;;;;;;4994299;28;20618;-55
2023/12/05 05:39:30;;;;;;;33.95;20.50;;;-0.10;99.90;;;;;;4987550;28;20131;-59
2023/12/05 05:41:56;;;;;;;34.53;20.90;;;-0.10;99.90;;;;;;4993286;28;20139;-58
2023/12/05 05:44:21;;;;;;;34.50;21.00;;;-0.10;99.90;;;;;;4994463;28;20108;-54
2023/12/05 05:46:47;;;;;;;35.90;20.73;;;-0.10;99.90;;;;;;4989902;28;20065;-57
2023/12/05 05:49:13;;;;;;;35.50;21.05;;;-0.10;99.90;;;;;;4992871;28;20061;-57
2023/12/05 05:51:39;;;;;;;36.10;21.25;;;-0.10;99.90;;;;;;4991788;28;20070;-58
2023/12/05 05:54:04;;;;;;;37.47;21.13;;;-0.10;99.90;;;;;;4989623;28;20418;-57
2023/12/05 05:56:30;;;;;;;38.40;22.00;;;-0.10;99.90;;;;;;4985379;28;20052;-59
2023/12/05 05:58:56;;;;;;;33.45;20.77;;;-0.10;99.90;;;;;;4996264;28;20038;-57
2023/12/05 06:01:22;;;;;;;36.20;20.35;;;-0.10;99.90;;;;;;4995900;28;20125;-58
2023/12/05 06:03:48;;;;;;;37.45;22.00;;;-0.10;99.90;;;;;;4997237;28;20070;-52
2023/12/05 06:06:13;;;;;;;34.53;20.77;;;-0.10;99.90;;;;;;5001239;28;20099;-53
2023/12/05 06:08:39;;;;;;;34.22;19.95;;;-0.10;99.90;;;;;;4977624;28;20395;-57
2023/12/05 06:11:05;;;;;;;38.22;22.20;;;-0.10;99.90;;;;;;4986996;28;20065;-56
2023/12/05 06:13:30;;;;;;;35.10;21.77;;;-0.10;99.90;;;;;;4991839;28;20046;-58
2023/12/05 06:15:56;;;;;;;36.80;21.83;;;-0.10;99.90;;;;;;4996376;28;20056;-57
2023/12/05 06:18:22;;;;;;;37.28;22.08;;;-0.10;99.90;;;;;;4996044;28;20115;-51
2023/12/05 06:20:51;;;;;;;34.58;20.88;;;-0.10;99.90;;;;;;4993019;28;20049;-55
2023/12/05 06:23:17;;;;;;;36.20;21.80;;;-0.10;99.90;;;;;;4992229;28;20054;-52
2023/12/05 06:25:43;;;;;;;36.97;21.33;;;-0.10;99.90;;;;;;4992505;28;20479;-57
2023/12/05 06:28:08;;;;;;;37.47;22.05;;;-0.10;99.90;;;;;;4993657;28;20042;-57
2023/12/05 06:30:34;;;;;;;41.17;22.27;;;-0.10;99.90;;;;;;4993163;28;20585;-57
2023/12/05 06:33:00;;;;;;;38.30;21.20;;;-0.10;99.90;;;;;;4990307;28;20136;-57
2023/12/05 06:35:25;;;;;;;39.67;22.40;;;-0.10;99.90;;;;;;4992900;28;20077;-57
2023/12/05 06:37:54;;;;;;;39.40;23.55;;;-0.10;99.90;;;;;;4980399;28;20119;-57
2023/12/05 06:40:21;;;;;;;39.20;22.77;;;-0.10;99.90;;;;;;4987134;28;20082;-58
2023/12/05 06:42:46;;;;;;;39.90;23.33;;;-0.10;99.90;;;;;;4992239;28;20490;-58
2023/12/05 06:45:12;;;;;;;40.15;22.83;;;-0.10;99.90;;;;;;4971498;28;22022;-55
2023/12/05 06:47:38;;;;;;;41.13;23.38;;;-0.10;99.90;;;;;;4985924;28;20077;-58
2023/12/05 06:50:10;;;;;;;42.90;23.85;;;-0.10;99.90;;;;;;4973988;28;20393;-56
2023/12/05 06:52:40;;;;;;;41.27;23.50;;;-0.10;99.90;;;;;;4987902;28;20046;-58
2023/12/05 06:55:07;;;;;;;44.28;23.55;;;-0.10;99.90;;;;;;4983718;28;20084;-58
2023/12/05 06:57:32;;;;;;;40.90;22.80;;;-0.10;99.90;;;;;;4986290;28;20089;-57
2023/12/05 06:59:59;;;;;;;42.13;23.15;;;-0.10;99.90;;;;;;4998459;28;20033;-58
2023/12/05 07:02:24;;;;;;;40.83;22.55;;;-0.10;99.90;;;;;;4989393;28;20100;-55
2023/12/05 07:04:50;;;;;;;41.17;22.83;;;-0.10;99.90;;;;;;4978898;28;20034;-56
2023/12/05 07:07:16;;;;;;;42.95;23.00;;;-0.10;99.90;;;;;;4994872;28;20045;-55
2023/12/05 07:09:42;;;;;;;42.38;23.10;;;-0.10;99.90;;;;;;4998919;28;20044;-58
2023/12/05 07:12:08;;;;;;;43.00;23.95;;;-0.10;99.90;;;;;;4995699;28;20168;-57
2023/12/05 07:14:34;;;;;;;39.90;22.23;;;-0.10;99.90;;;;;;4997194;28;20126;-58
2023/12/05 07:17:00;;;;;;;41.97;23.27;;;-0.10;99.90;;;;;;4981468;28;20049;-57
2023/12/05 07:19:26;;;;;;;45.50;23.98;;;-0.10;99.90;;;;;;4996505;28;20046;-57
2023/12/05 07:21:51;;;;;;;42.70;24.42;;;-0.10;99.90;;;;;;4991339;28;20053;-55
2023/12/05 07:24:17;;;;;;;39.72;22.48;;;-0.10;99.90;;;;;;4974249;28;20045;-57
2023/12/05 07:26:43;;;;;;;41.33;23.55;;;-0.10;99.90;;;;;;4996510;28;20074;-58
2023/12/05 07:29:09;;;;;;;40.60;22.98;;;-0.10;99.90;;;;;;4992939;28;20069;-57
2023/12/05 07:31:35;;;;;;;40.33;21.90;;;-0.10;99.90;;;;;;4994352;28;20081;-57
2023/12/05 07:34:01;;;;;;;39.50;22.23;;;-0.10;99.90;;;;;;4993903;28;20099;-53
2023/12/05 07:36:27;;;;;;;39.78;22.35;;;-0.10;99.90;;;;;;4988551;28;20054;-54
2023/12/05 07:38:52;;;;;;;38.83;22.42;;;-0.10;99.90;;;;;;4989105;28;20045;-58
2023/12/05 07:41:20;;;;;;;40.95;23.52;;;-0.10;99.90;;;;;;4993299;28;20081;-58
2023/12/05 07:43:46;;;;;;;37.95;21.83;;;-0.10;99.90;;;;;;4989063;28;20298;-58
2023/12/05 07:46:12;;;;;;;40.90;21.98;;;-0.10;99.90;;;;;;4989636;28;20487;-57
2023/12/05 07:48:37;;;;;;;38.17;21.70;;;-0.10;99.90;;;;;;4998769;28;20046;-58
2023/12/05 07:51:03;;;;;;;40.28;22.33;;;-0.10;99.90;;;;;;4999318;28;20034;-58
2023/12/05 07:53:29;;;;;;;38.90;22.50;;;-0.10;99.90;;;;;;5003628;28;20041;-58
2023/12/05 07:55:55;;;;;;;39.42;21.25;;;-0.10;99.90;;;;;;4997696;28;20125;-58
2023/12/05 07:58:20;;;;;;;37.75;21.80;;;-0.10;99.90;;;;;;4996882;28;20041;-53
2023/12/05 08:00:46;;;;;;;40.25;21.40;;;0.00;99.90;;;;;;4975813;28;20073;-52
2023/12/05 08:03:14;;;;;;;41.50;21.90;;;-0.10;99.90;;;;;;4996488;28;20041;-59
2023/12/05 08:05:40;;;;;;;47.70;22.55;;;-0.10;99.90;;;;;;4996966;28;20048;-58
2023/12/05 08:08:05;;;;;;;37.42;22.08;;;0.00;99.90;;;;;;4998615;28;20576;-57
2023/12/05 08:10:31;;;;;;;39.47;21.63;;;-0.10;99.90;;;;;;4998286;28;20394;-55
2023/12/05 08:12:57;;;;;;;43.13;21.80;;;0.00;99.90;;;;;;4981447;28;27329;-59
2023/12/05 08:15:23;;;;;;;42.95;22.30;;;-0.10;99.90;;;;;;4999024;28;20042;-57
2023/12/05 08:17:48;;;;;;;39.22;21.67;;;0.00;99.90;;;;;;4994736;28;20470;-58
2023/12/05 08:20:14;;;;;;;36.97;21.40;;;0.00;99.90;;;;;;4994556;28;20041;-57
2023/12/05 08:22:40;;;;;;;42.55;21.75;;;0.00;99.90;;;;;;4993260;28;20034;-55
2023/12/05 08:25:08;;;;;;;47.72;21.98;;;0.00;99.90;;;;;;4995027;28;20384;-57
2023/12/05 08:27:34;;;;;;;40.50;21.73;;;0.00;99.90;;;;;;4996796;28;20287;-60
2023/12/05 08:30:02;;;;;;;40.72;21.90;;;0.00;99.90;;;;;;4995497;28;20039;-57
2023/12/05 08:32:28;;;;;;;38.25;21.55;;;0.00;99.90;;;;;;4995738;28;20570;-58
2023/12/05 08:34:54;;;;;;;35.55;20.80;;;0.00;99.90;;;;;;4995796;28;20125;-58
2023/12/05 08:37:19;;;;;;;35.30;21.00;;;0.00;99.90;;;;;;4990319;28;20099;-54
2023/12/05 08:39:45;;;;;;;35.03;21.30;;;0.00;99.90;;;;;;4993178;28;20058;-59
2023/12/05 08:42:11;;;;;;;36.40;22.30;;;0.00;99.90;;;;;;4995012;28;20521;-52
2023/12/05 08:44:36;;;;;;;34.35;21.33;;;0.00;99.90;;;;;;5002213;28;20406;-58
2023/12/05 08:47:02;;;;;;;37.55;21.38;;;0.00;99.90;;;;;;5003500;28;20132;-56
2023/12/05 08:49:28;;;;;;;36.30;20.98;;;0.00;99.90;;;;;;5005120;28;20080;-54
2023/12/05 08:51:54;;;;;;;34.95;20.58;;;0.00;99.90;;;;;;5006820;28;20458;-56
2023/12/05 08:54:19;;;;;;;41.97;21.60;;;0.00;99.90;;;;;;5005000;28;20046;-57
2023/12/05 08:56:45;;;;;;;34.95;21.05;;;0.10;99.90;;;;;;4996958;28;20085;-57
2023/12/05 08:59:11;;;;;;;32.90;19.60;;;0.00;99.90;;;;;;5002776;28;20050;-58
2023/12/05 09:01:36;;;;;;;32.55;20.35;;;0.10;99.90;;;;;;5003430;28;20038;-56
2023/12/05 09:04:03;;;;;;;34.83;20.80;;;0.10;99.90;;;;;;5001237;28;20092;-57
2023/12/05 09:06:29;;;;;;;38.72;21.00;;;0.00;99.90;;;;;;5003152;28;20101;-58
2023/12/05 09:08:57;;;;;;;37.10;21.05;;;0.00;99.90;;;;;;5000119;28;20494;-59
2023/12/05 09:11:23;;;;;;;35.42;20.40;;;0.10;99.90;;;;;;4998029;28;20049;-58
2023/12/05 09:13:49;;;;;;;33.17;20.27;;;0.10;99.90;;;;;;4997595;28;20096;-58
2023/12/05 09:16:14;;;;;;;35.92;21.15;;;0.10;99.90;;;;;;4974642;28;20384;-57
2023/12/05 09:18:40;;;;;;;31.25;19.60;;;0.10;99.90;;;;;;4998364;28;20124;-58
2023/12/05 09:21:08;;;;;;;34.00;19.90;;;0.10;99.90;;;;;;4993609;28;20042;-58
2023/12/05 09:23:33;;;;;;;34.90;20.92;;;0.20;99.90;;;;;;4994763;28;20178;-56
2023/12/05 09:25:59;;;;;;;34.38;20.58;;;0.20;99.90;;;;;;4994948;28;20140;-59
2023/12/05 09:28:25;;;;;;;35.35;20.73;;;0.20;99.90;;;;;;4975956;28;20033;-54
2023/12/05 09:30:50;;;;;;;34.53;21.45;;;0.20;99.90;;;;;;4974521;28;20065;-57
2023/12/05 09:33:16;;;;;;;34.70;20.48;;;0.20;99.90;;;;;;4990749;28;20042;-58
2023/12/05 09:35:42;;;;;;;34.00;20.02;;;0.30;99.90;;;;;;4991680;28;20525;-58
2023/12/05 09:38:09;;;;;;;33.28;20.40;;;0.80;99.90;;;;;;4987836;28;20812;-58
2023/12/05 09:40:35;;;;;;;36.00;20.77;;;0.40;99.90;;;;;;5003073;28;20509;-57
2023/12/05 09:43:04;;;;;;;30.55;19.98;;;0.40;99.90;;;;;;5000144;28;20038;-51
2023/12/05 09:45:37;;;;;;;31.92;19.55;;;0.50;99.90;;;;;;4987827;28;20057;-58
2023/12/05 09:48:05;;;;;;;32.22;20.17;;;0.50;99.90;;;;;;5001871;28;20105;-58
2023/12/05 09:50:32;;;;;;;32.58;19.80;;;0.60;99.90;;;;;;5001517;28;20379;-58
2023/12/05 09:52:59;;;;;;;32.85;19.63;;;0.60;99.90;;;;;;5001779;28;20034;-58
2023/12/05 09:55:25;;;;;;;32.33;19.17;;;0.60;99.90;;;;;;5002411;28;20599;-59
2023/12/05 09:57:51;;;;;;;31.80;19.90;;;0.70;99.90;;;;;;5002220;28;20144;-57
2023/12/05 10:00:18;;;;;;;32.00;19.92;;;0.70;99.90;;;;;;4994399;28;20115;-55
2023/12/05 10:02:46;;;;;;;32.67;20.35;;;0.70;99.90;;;;;;4999004;28;20177;-59
2023/12/05 10:05:15;;;;;;;31.52;19.88;;;0.70;99.90;;;;;;4997784;28;20041;-57
2023/12/05 10:07:43;;;;;;;32.33;20.02;;;0.70;99.90;;;;;;4994791;28;20046;-53
2023/12/05 10:10:11;;;;;;;33.35;20.45;;;0.70;99.90;;;;;;4995999;28;20042;-58
2023/12/05 10:12:37;;;;;;;34.08;20.13;;;0.70;99.90;;;;;;4994888;28;20050;-58
2023/12/05 10:15:04;;;;;;;32.58;19.48;;;0.70;99.90;;;;;;4993295;28;20403;-57
2023/12/05 10:17:33;;;;;;;33.17;20.40;;;0.70;99.90;;;;;;4991243;28;20042;-56
2023/12/05 10:19:59;;;;;;;33.40;20.08;;;0.80;99.90;;;;;;4991186;28;20763;-57
2023/12/05 10:22:30;;;;;;;31.58;19.20;;;0.80;99.90;;;;;;4997534;28;20095;-59
2023/12/05 10:24:56;;;;;;;34.03;20.60;;;0.80;99.90;;;;;;5006504;28;20053;-58
2023/12/05 10:27:22;;;;;;;33.28;20.77;;;0.80;99.90;;;;;;5000497;28;20038;-59
2023/12/05 10:29:47;;;;;;;35.22;20.42;;;0.80;99.90;;;;;;4970344;28;20120;-58
2023/12/05 10:32:13;;;;;;;35.60;21.42;;;0.90;99.90;;;;;;5001697;28;20584;-58
2023/12/05 10:34:51;;;;;;;33.03;20.20;;;0.80;99.90;;;;;;5002688;28;20042;-53
2023/12/05 10:37:24;;;;;;;35.05;20.85;;;0.80;99.90;;;;;;5003163;28;20611;-56
2023/12/05 10:39:54;;;;;;;31.25;19.85;;;0.80;99.90;;;;;;4998565;28;20080;-58
2023/12/05 10:42:24;;;;;;;31.13;20.55;;;0.80;99.90;;;;;;4997768;28;20104;-57
2023/12/05 10:44:50;;;;;;;32.47;20.55;;;0.80;99.90;;;;;;4998684;28;20402;-57
2023/12/05 10:47:16;;;;;;;33.45;20.67;;;0.80;99.90;;;;;;4998630;28;20067;-58
2023/12/05 10:49:42;;;;;;;32.72;20.60;;;0.80;99.90;;;;;;5000513;28;20054;-58
2023/12/05 10:52:11;;;;;;;32.92;20.25;;;0.80;99.90;;;;;;5002526;28;20121;-57
2023/12/05 10:54:37;;;;;;;34.03;20.90;;;0.70;99.90;;;;;;4996307;28;20045;-58
2023/12/05 10:57:09;;;;;;;35.72;21.33;;;0.70;99.90;;;;;;4997527;28;20052;-58
2023/12/05 10:59:35;;;;;;;39.13;21.83;;;0.70;99.90;;;;;;4976252;28;20049;-56
2023/12/05 11:02:03;;;;;;;33.95;20.45;;;0.70;99.90;;;;;;4994230;28;20046;-59
2023/12/05 11:04:29;;;;;;;36.67;21.60;;;0.70;99.90;;;;;;4993897;28;20604;-57
2023/12/05 11:06:55;;;;;;;36.08;21.80;;;0.70;99.90;;;;;;4996103;28;20058;-54
2023/12/05 11:09:23;;;;;;;32.88;21.33;;;0.70;99.90;;;;;;4990108;28;20513;-58
2023/12/05 11:11:54;;;;;;;36.70;22.13;;;0.70;99.90;;;;;;4991680;28;20042;-58
2023/12/05 11:14:21;;;;;;;34.88;21.30;;;0.70;99.90;;;;;;4990445;28;20419;-56
2023/12/05 11:16:53;;;;;;;36.15;21.70;;;0.70;99.90;;;;;;4989027;28;20034;-57
2023/12/05 11:19:22;;;;;;;34.37;21.37;;;0.70;99.90;;;;;;4992766;28;20053;-56
2023/12/05 11:22:06;;;;;;;36.90;21.33;;;0.70;99.90;;;;;;5001645;28;20463;-57
2023/12/05 11:25:07;;;;;;;37.67;22.42;;;0.70;99.90;;;;;;5002033;28;20053;-58
2023/12/05 11:27:43;;;;;;;37.95;22.30;;;0.70;99.90;;;;;;5001032;28;20073;-55
2023/12/05 11:30:37;;;;;;;39.30;22.42;;;0.70;99.90;;;;;;4999997;28;20084;-57
2023/12/05 11:33:22;;;;;;;36.42;22.73;;;0.70;99.90;;;;;;4999902;28;20450;-58
2023/12/05 11:35:50;;;;;;;41.90;22.58;;;0.70;99.90;;;;;;4996663;28;20045;-55
2023/12/05 11:38:19;;;;;;;37.10;21.65;;;0.70;99.90;;;;;;4997588;28;20052;-58
2023/12/05 11:41:15;;;;;;;40.08;22.48;;;0.70;99.90;;;;;;4996520;28;20038;-58
2023/12/05 11:43:44;;;;;;;37.85;22.58;;;0.70;99.90;;;;;;4996424;28;20046;-57
2023/12/05 11:46:10;;;;;;;38.92;22.75;;;0.70;99.90;;;;;;4997679;28;20054;-58
2023/12/05 11:48:35;;;;;;;38.42;23.42;;;0.70;99.90;;;;;;4996864;28;20466;-58
2023/12/05 11:51:04;;;;;;;38.40;22.02;;;0.70;99.90;;;;;;4994547;28;20073;-57
2023/12/05 11:53:30;;;;;;;40.42;22.50;;;0.80;99.90;;;;;;4995623;28;20454;-57
2023/12/05 11:55:57;;;;;;;39.72;23.10;;;0.70;99.90;;;;;;4996088;28;20037;-58
2023/12/05 11:58:31;;;;;;;40.60;23.50;;;0.80;99.90;;;;;;4993730;28;20459;-59
2023/12/05 12:01:06;;;;;;;39.88;23.55;;;0.80;99.90;;;;;;4994559;28;20125;-58
2023/12/05 12:03:53;;;;;;;40.25;23.50;;;0.80;99.90;;;;;;4995557;28;20125;-57
2023/12/05 12:06:21;;;;;;;40.63;23.35;;;0.80;99.90;;;;;;4991119;28;20053;-57
2023/12/05 12:08:53;;;;;;;41.58;24.15;;;0.80;99.90;;;;;;4992352;28;20038;-57
2023/12/05 12:11:23;;;;;;;38.63;23.08;;;0.80;99.90;;;;;;4990650;28;20042;-58
2023/12/05 12:13:49;;;;;;;38.40;22.58;;;0.80;99.90;;;;;;4987489;28;20048;-57
2023/12/05 12:16:18;;;;;;;41.47;24.23;;;0.80;99.90;;;;;;5005204;28;20050;-58
2023/12/05 12:18:44;;;;;;;42.13;25.02;;;0.80;99.90;;;;;;5002973;28;20038;-55
2023/12/05 12:21:10;;;;;;;42.55;24.67;;;0.80;99.90;;;;;;4986107;28;20050;-58
2023/12/05 12:23:36;;;;;;;38.15;23.50;;;0.80;99.90;;;;;;4987625;28;20034;-57
2023/12/05 12:26:02;;;;;;;43.15;25.00;;;0.70;99.90;;;;;;4991125;28;20045;-52
2023/12/05 12:28:33;;;;;;;40.63;24.83;;;0.70;99.90;;;;;;4994978;28;20038;-57
2023/12/05 12:31:00;;;;;;;42.22;24.55;;;0.70;99.90;;;;;;4991957;28;20078;-58
2023/12/05 12:33:40;;;;;;;42.85;24.60;;;0.70;99.90;;;;;;4972628;28;20107;-58